Time;durP1;ratioP1;P1;durP2;ratioP2;P2;SDS_P1;SDS_P2;PMS_P1;PMS_P2;Temp;Humidity;BMP_temperature;BMP_pressure;BME280_temperature;BME280_humidity;BME280_pressure;Samples;Min_cycle;Max_cycle;Signal;HPM_P1;HPM_P2
2021/06/15 00:01:39;;;;;;;4.45;1.80;;;;;;;;;;5153015;27;20019;-63
2021/06/15 00:04:05;;;;;;;3.80;1.60;;;;;;;;;;5153741;27;20027;-65
2021/06/15 00:06:31;;;;;;;3.95;1.95;;;;;;;;;;5153558;27;20023;-65
2021/06/15 00:08:58;;;;;;;3.55;1.75;;;;;;;;;;5153141;27;20097;-64
2021/06/15 00:11:24;;;;;;;4.25;1.80;;;;;;;;;;5152890;27;20040;-64
2021/06/15 00:13:50;;;;;;;4.68;1.80;;;;;;;;;;5152972;27;20023;-64
2021/06/15 00:16:16;;;;;;;4.72;1.92;;;;;;;;;;5156489;27;20046;-63
2021/06/15 00:18:42;;;;;;;3.75;1.73;;;;;;;;;;5137512;27;20023;-64
2021/06/15 00:21:08;;;;;;;3.80;1.58;;;;;;;;;;5142116;27;20023;-64
2021/06/15 00:23:34;;;;;;;4.05;1.85;;;;;;;;;;5156687;27;20027;-64
2021/06/15 00:26:00;;;;;;;4.80;2.00;;;;;;;;;;5156721;27;20630;-64
2021/06/15 00:28:26;;;;;;;3.38;1.50;;;;;;;;;;5156682;27;20154;-64
2021/06/15 00:30:52;;;;;;;3.88;1.73;;;;;;;;;;5157101;27;20018;-64
2021/06/15 00:33:19;;;;;;;10.98;1.85;;;;;;;;;;5157123;27;20030;-65
2021/06/15 00:35:45;;;;;;;8.73;1.60;;;;;;;;;;5157347;27;20035;-66
2021/06/15 00:38:11;;;;;;;14.02;2.05;;;;;;;;;;5156799;27;20522;-65
2021/06/15 00:40:37;;;;;;;5.00;1.80;;;;;;;;;;5157010;27;20015;-65
2021/06/15 00:43:03;;;;;;;6.43;2.10;;;;;;;;;;5157055;27;20046;-64
2021/06/15 00:45:32;;;;;;;3.88;1.80;;;;;;;;;;5157030;27;20404;-65
2021/06/15 00:47:58;;;;;;;8.23;2.08;;;;;;;;;;5156576;27;20025;-65
2021/06/15 00:50:25;;;;;;;6.72;1.90;;;;;;;;;;5137894;27;20015;-65
2021/06/15 00:52:53;;;;;;;6.78;1.70;;;;;;;;;;5156473;27;20065;-66
2021/06/15 00:55:20;;;;;;;5.95;2.00;;;;;;;;;;5156488;27;20068;-66
2021/06/15 00:57:46;;;;;;;8.70;1.90;;;;;;;;;;5156430;27;20023;-65
2021/06/15 01:00:12;;;;;;;4.28;2.00;;;;;;;;;;5156430;27;20018;-66
2021/06/15 01:02:38;;;;;;;7.80;1.67;;;;;;;;;;5156331;27;20019;-65
2021/06/15 01:05:08;;;;;;;5.45;1.77;;;;;;;;;;5156028;27;20010;-66
2021/06/15 01:07:53;;;;;;;4.15;1.73;;;;;;;;;;5156163;27;20485;-65
2021/06/15 01:10:28;;;;;;;4.60;1.85;;;;;;;;;;5156162;27;20026;-64
2021/06/15 01:13:13;;;;;;;10.32;2.05;;;;;;;;;;5156076;27;20034;-65
2021/06/15 01:15:43;;;;;;;4.97;1.95;;;;;;;;;;5156029;27;20034;-65
2021/06/15 01:18:12;;;;;;;6.13;1.73;;;;;;;;;;5155696;27;20049;-66
2021/06/15 01:20:39;;;;;;;4.53;1.73;;;;;;;;;;5155980;27;20023;-66
2021/06/15 01:23:09;;;;;;;4.15;1.83;;;;;;;;;;5155708;27;20015;-66
2021/06/15 01:25:35;;;;;;;3.75;1.65;;;;;;;;;;5154995;27;20380;-66
2021/06/15 01:28:22;;;;;;;6.05;1.85;;;;;;;;;;5155094;27;20473;-66
2021/06/15 01:30:49;;;;;;;7.40;1.83;;;;;;;;;;5155732;27;20030;-66
2021/06/15 01:33:16;;;;;;;5.05;1.85;;;;;;;;;;5155436;27;20030;-65
2021/06/15 01:35:43;;;;;;;8.50;1.75;;;;;;;;;;5136927;27;20058;-65
2021/06/15 01:38:10;;;;;;;4.55;1.60;;;;;;;;;;5155606;27;20106;-65
2021/06/15 01:40:38;;;;;;;6.43;1.73;;;;;;;;;;5155617;27;20022;-66
2021/06/15 01:43:09;;;;;;;6.00;1.70;;;;;;;;;;5155251;27;20061;-65
2021/06/15 01:45:37;;;;;;;4.43;2.03;;;;;;;;;;5155317;27;20022;-65
2021/06/15 01:48:06;;;;;;;3.45;1.65;;;;;;;;;;5155490;27;20137;-65
2021/06/15 01:50:34;;;;;;;3.95;1.60;;;;;;;;;;5136824;27;20392;-65
2021/06/15 01:53:01;;;;;;;4.22;1.42;;;;;;;;;;5136640;27;20037;-66
2021/06/15 01:55:28;;;;;;;5.22;1.83;;;;;;;;;;5155238;27;20432;-65
2021/06/15 01:57:54;;;;;;;6.50;1.65;;;;;;;;;;5154996;27;20079;-65
2021/06/15 02:00:21;;;;;;;6.00;1.60;;;;;;;;;;5154942;27;20079;-64
2021/06/15 02:02:49;;;;;;;6.55;1.85;;;;;;;;;;5119431;27;20053;-65
2021/06/15 02:05:18;;;;;;;4.28;1.75;;;;;;;;;;5154930;27;20019;-66
2021/06/15 02:07:44;;;;;;;4.13;1.77;;;;;;;;;;5136298;27;20022;-65
2021/06/15 02:10:16;;;;;;;4.50;1.70;;;;;;;;;;5154917;27;20050;-65
2021/06/15 02:12:44;;;;;;;3.72;1.55;;;;;;;;;;5154875;27;20389;-66
2021/06/15 02:15:11;;;;;;;5.35;1.73;;;;;;;;;;5154796;27;20019;-64
2021/06/15 02:17:40;;;;;;;5.15;1.58;;;;;;;;;;5142359;27;20504;-66
2021/06/15 02:20:06;;;;;;;4.55;1.75;;;;;;;;;;5133784;27;20019;-65
2021/06/15 02:22:33;;;;;;;4.25;1.80;;;;;;;;;;5133967;27;20023;-65
2021/06/15 02:25:01;;;;;;;4.07;1.63;;;;;;;;;;5133695;27;20024;-65
2021/06/15 02:27:27;;;;;;;4.95;1.50;;;;;;;;;;5133754;27;20025;-66
2021/06/15 02:29:54;;;;;;;6.45;1.60;;;;;;;;;;5133720;27;20123;-66
2021/06/15 02:32:32;;;;;;;4.93;1.95;;;;;;;;;;5133701;27;20072;-67
2021/06/15 02:35:00;;;;;;;5.05;1.60;;;;;;;;;;5133628;27;20038;-66
2021/06/15 02:37:27;;;;;;;4.13;1.45;;;;;;;;;;5133015;27;20025;-65
2021/06/15 02:39:55;;;;;;;4.60;1.50;;;;;;;;;;5133613;27;20050;-65
2021/06/15 02:42:22;;;;;;;3.60;1.58;;;;;;;;;;5133384;27;20145;-66
2021/06/15 02:44:49;;;;;;;3.33;1.50;;;;;;;;;;5133593;27;20075;-66
2021/06/15 02:47:16;;;;;;;6.07;1.67;;;;;;;;;;5133332;27;20030;-66
2021/06/15 02:49:44;;;;;;;3.15;1.50;;;;;;;;;;5133547;27;20029;-65
2021/06/15 02:52:39;;;;;;;5.18;1.95;;;;;;;;;;5133256;27;20509;-65
2021/06/15 02:55:11;;;;;;;3.55;1.25;;;;;;;;;;5123683;27;20035;-65
2021/06/15 02:57:37;;;;;;;5.30;2.38;;;;;;;;;;5114632;27;20473;-65
2021/06/15 03:00:06;;;;;;;4.07;1.50;;;;;;;;;;5132975;27;20531;-65
2021/06/15 03:02:32;;;;;;;4.45;1.67;;;;;;;;;;5133036;27;20109;-66
2021/06/15 03:04:58;;;;;;;5.07;1.80;;;;;;;;;;5114610;27;20016;-67
2021/06/15 03:07:24;;;;;;;3.90;1.70;;;;;;;;;;5114329;27;20019;-66
2021/06/15 03:09:50;;;;;;;5.40;1.60;;;;;;;;;;5114182;27;20110;-65
2021/06/15 03:12:18;;;;;;;3.35;1.52;;;;;;;;;;5132764;27;20118;-64
2021/06/15 03:14:54;;;;;;;6.63;1.85;;;;;;;;;;5132787;27;20510;-65
2021/06/15 03:17:22;;;;;;;3.88;1.58;;;;;;;;;;5132234;27;20102;-66
2021/06/15 03:19:57;;;;;;;3.92;1.60;;;;;;;;;;5132758;27;20031;-65
2021/06/15 03:22:27;;;;;;;4.18;1.55;;;;;;;;;;5132729;27;20058;-66
2021/06/15 03:24:54;;;;;;;5.18;1.63;;;;;;;;;;5132697;27;20019;-65
2021/06/15 03:27:29;;;;;;;6.00;1.77;;;;;;;;;;5132682;27;20027;-65
2021/06/15 03:29:56;;;;;;;3.53;1.60;;;;;;;;;;5132599;27;20043;-66
2021/06/15 03:32:22;;;;;;;5.80;1.83;;;;;;;;;;5114064;27;20042;-65
2021/06/15 03:34:52;;;;;;;5.97;1.77;;;;;;;;;;5132635;27;20065;-65
2021/06/15 03:37:23;;;;;;;4.50;1.70;;;;;;;;;;5132598;27;20019;-65
2021/06/15 03:39:50;;;;;;;5.47;1.73;;;;;;;;;;5132492;27;20027;-67
2021/06/15 03:42:21;;;;;;;3.70;1.77;;;;;;;;;;5132230;27;20517;-65
2021/06/15 03:44:59;;;;;;;4.78;1.98;;;;;;;;;;5114086;27;20114;-65
2021/06/15 03:47:25;;;;;;;4.60;1.77;;;;;;;;;;5132203;27;20023;-66
2021/06/15 03:49:54;;;;;;;5.78;2.00;;;;;;;;;;5113190;28;20042;-64
2021/06/15 03:52:20;;;;;;;5.55;2.13;;;;;;;;;;5132304;27;20517;-66
2021/06/15 03:54:46;;;;;;;6.57;1.80;;;;;;;;;;5132331;27;20039;-66
2021/06/15 03:57:13;;;;;;;6.10;2.30;;;;;;;;;;5132395;27;20023;-66
2021/06/15 03:59:39;;;;;;;5.07;2.10;;;;;;;;;;5131905;27;20054;-66
2021/06/15 04:02:06;;;;;;;5.05;2.15;;;;;;;;;;5113706;28;20019;-67
2021/06/15 04:04:34;;;;;;;4.05;2.00;;;;;;;;;;5132204;28;20102;-66
2021/06/15 04:07:00;;;;;;;5.28;2.05;;;;;;;;;;5132078;28;20552;-66
2021/06/15 04:09:27;;;;;;;5.50;2.25;;;;;;;;;;5131967;28;20019;-65
2021/06/15 04:11:58;;;;;;;7.32;2.28;;;;;;;;;;5132143;28;20035;-65
2021/06/15 04:14:26;;;;;;;6.78;2.20;;;;;;;;;;5132201;28;20027;-65
2021/06/15 04:16:52;;;;;;;4.65;1.63;;;;;;;;;;5131828;27;20076;-66
2021/06/15 04:19:45;;;;;;;3.35;1.60;;;;;;;;;;5131860;28;20023;-66
2021/06/15 04:22:13;;;;;;;4.73;2.07;;;;;;;;;;5132894;27;20034;-65
2021/06/15 04:24:40;;;;;;;6.32;2.38;;;;;;;;;;5152510;27;20014;-66
2021/06/15 04:27:07;;;;;;;5.43;2.20;;;;;;;;;;5134180;27;20392;-66
2021/06/15 04:29:33;;;;;;;4.22;1.83;;;;;;;;;;5152689;27;20030;-66
2021/06/15 04:32:00;;;;;;;5.45;2.08;;;;;;;;;;5152446;27;20023;-65
2021/06/15 04:34:26;;;;;;;5.35;1.88;;;;;;;;;;5152625;27;20034;-66
2021/06/15 04:37:01;;;;;;;5.00;2.03;;;;;;;;;;5152728;27;20071;-66
2021/06/15 04:39:34;;;;;;;5.40;2.05;;;;;;;;;;5151899;27;20022;-66
2021/06/15 04:42:01;;;;;;;5.75;2.45;;;;;;;;;;5152287;27;20099;-66
2021/06/15 04:44:30;;;;;;;5.72;2.05;;;;;;;;;;5152556;27;20107;-66
2021/06/15 04:46:58;;;;;;;4.10;1.75;;;;;;;;;;5152264;27;20057;-66
2021/06/15 04:49:30;;;;;;;6.18;1.90;;;;;;;;;;5152234;27;20067;-66
2021/06/15 04:51:58;;;;;;;7.15;2.20;;;;;;;;;;5152263;27;20035;-65
2021/06/15 04:54:28;;;;;;;5.63;2.13;;;;;;;;;;5134089;27;20050;-66
2021/06/15 04:56:55;;;;;;;5.53;1.92;;;;;;;;;;5152391;27;20060;-66
2021/06/15 04:59:22;;;;;;;4.03;1.80;;;;;;;;;;5152451;27;20508;-66
2021/06/15 05:01:48;;;;;;;4.22;1.90;;;;;;;;;;5155186;27;20023;-68
2021/06/15 05:04:15;;;;;;;8.13;2.15;;;;;;;;;;5156114;27;20022;-66
2021/06/15 05:06:41;;;;;;;5.97;2.05;;;;;;;;;;5155967;27;20023;-66
2021/06/15 05:09:08;;;;;;;4.95;1.80;;;;;;;;;;5155799;27;20026;-66
2021/06/15 05:11:39;;;;;;;5.25;2.00;;;;;;;;;;5155676;27;20023;-65
2021/06/15 05:14:06;;;;;;;5.80;2.40;;;;;;;;;;5155961;27;20106;-66
2021/06/15 05:16:34;;;;;;;4.65;2.00;;;;;;;;;;5155596;27;20030;-64
2021/06/15 05:19:00;;;;;;;4.43;1.52;;;;;;;;;;5137081;27;20051;-66
2021/06/15 05:21:29;;;;;;;4.25;2.00;;;;;;;;;;5154623;27;20431;-66
2021/06/15 05:24:21;;;;;;;6.60;1.80;;;;;;;;;;5144743;27;20026;-66
2021/06/15 05:26:47;;;;;;;7.43;1.95;;;;;;;;;;5142032;27;20035;-65
2021/06/15 05:29:13;;;;;;;4.75;1.80;;;;;;;;;;5137145;27;20024;-65
2021/06/15 05:31:39;;;;;;;3.78;2.05;;;;;;;;;;5126454;27;20019;-66
2021/06/15 05:34:05;;;;;;;6.50;1.90;;;;;;;;;;5145421;27;20026;-66
2021/06/15 05:36:32;;;;;;;6.22;1.73;;;;;;;;;;5125310;27;20019;-66
2021/06/15 05:38:58;;;;;;;6.20;2.00;;;;;;;;;;5144909;27;20470;-66
2021/06/15 05:41:24;;;;;;;4.35;1.67;;;;;;;;;;5143642;27;20477;-66
2021/06/15 05:43:50;;;;;;;4.57;1.88;;;;;;;;;;5125806;27;20081;-67
2021/06/15 05:46:16;;;;;;;4.35;1.83;;;;;;;;;;5142091;27;20023;-65
2021/06/15 05:48:42;;;;;;;6.75;1.50;;;;;;;;;;5143916;27;20030;-67
2021/06/15 05:51:08;;;;;;;5.05;1.88;;;;;;;;;;5144002;27;20030;-67
2021/06/15 05:53:34;;;;;;;4.40;1.73;;;;;;;;;;5124220;27;20481;-66
2021/06/15 05:56:00;;;;;;;5.90;1.98;;;;;;;;;;5135137;27;20034;-66
2021/06/15 05:58:26;;;;;;;4.13;1.58;;;;;;;;;;5134731;27;20067;-67
2021/06/15 06:00:52;;;;;;;6.03;2.00;;;;;;;;;;5142331;27;20051;-65
2021/06/15 06:03:30;;;;;;;7.05;1.90;;;;;;;;;;5153735;27;20171;-66
2021/06/15 06:08:41;;;;;;;4.28;1.75;;;;;;;;;;5155853;27;20030;-66
2021/06/15 06:11:08;;;;;;;4.80;2.10;;;;;;;;;;5155661;27;20381;-67
2021/06/15 06:13:35;;;;;;;5.07;1.92;;;;;;;;;;5154273;27;20052;-66
2021/06/15 06:16:05;;;;;;;4.78;1.90;;;;;;;;;;5154834;27;20457;-65
2021/06/15 06:18:32;;;;;;;7.30;2.03;;;;;;;;;;5155255;27;20156;-67
2021/06/15 06:20:58;;;;;;;4.03;1.88;;;;;;;;;;5155409;27;20147;-66
2021/06/15 06:23:24;;;;;;;3.40;1.60;;;;;;;;;;5155286;27;20023;-66
2021/06/15 06:25:50;;;;;;;4.80;1.95;;;;;;;;;;5155460;27;20366;-65
2021/06/15 06:28:16;;;;;;;6.25;1.85;;;;;;;;;;5155176;27;20026;-66
2021/06/15 06:30:42;;;;;;;3.40;1.77;;;;;;;;;;5155289;27;20030;-67
2021/06/15 06:33:08;;;;;;;3.45;1.42;;;;;;;;;;5155124;27;20030;-66
2021/06/15 06:35:34;;;;;;;4.80;1.60;;;;;;;;;;5154947;27;20093;-66
2021/06/15 06:38:00;;;;;;;4.32;1.80;;;;;;;;;;5136317;27;20048;-66
2021/06/15 06:40:27;;;;;;;5.00;2.00;;;;;;;;;;5155005;27;20018;-66
2021/06/15 06:42:53;;;;;;;5.03;1.90;;;;;;;;;;5154928;27;21207;-65
2021/06/15 06:45:19;;;;;;;4.93;1.85;;;;;;;;;;5136279;27;20110;-66
2021/06/15 06:47:45;;;;;;;5.05;1.88;;;;;;;;;;5154820;27;20027;-66
2021/06/15 06:50:11;;;;;;;4.43;1.90;;;;;;;;;;5154937;27;20022;-66
2021/06/15 06:52:38;;;;;;;5.97;1.90;;;;;;;;;;5154840;27;20063;-66
2021/06/15 06:55:04;;;;;;;7.78;1.98;;;;;;;;;;5154925;27;20047;-66
2021/06/15 06:57:30;;;;;;;5.38;1.90;;;;;;;;;;5154667;27;20022;-67
2021/06/15 06:59:56;;;;;;;4.38;1.73;;;;;;;;;;5154307;27;20079;-66
2021/06/15 07:02:22;;;;;;;6.20;2.20;;;;;;;;;;5154456;27;20041;-66
2021/06/15 07:04:49;;;;;;;5.03;1.70;;;;;;;;;;5154757;27;20015;-66
2021/06/15 07:07:15;;;;;;;4.43;1.70;;;;;;;;;;5135937;27;20473;-67
2021/06/15 07:09:41;;;;;;;4.03;1.50;;;;;;;;;;5154604;27;20397;-65
2021/06/15 07:12:07;;;;;;;10.63;1.80;;;;;;;;;;5135475;27;20026;-67
2021/06/15 07:14:33;;;;;;;5.75;1.90;;;;;;;;;;5154299;27;20083;-67
2021/06/15 07:16:59;;;;;;;5.03;1.73;;;;;;;;;;5152130;27;20022;-66
2021/06/15 07:19:25;;;;;;;5.65;1.95;;;;;;;;;;5144058;27;20091;-66
2021/06/15 07:21:51;;;;;;;3.97;1.85;;;;;;;;;;5144614;27;20023;-66
2021/06/15 07:24:17;;;;;;;3.80;1.55;;;;;;;;;;5141354;27;20019;-64
2021/06/15 07:26:43;;;;;;;4.22;1.48;;;;;;;;;;5143423;27;20094;-65
2021/06/15 07:29:09;;;;;;;4.32;1.70;;;;;;;;;;5140748;27;20026;-65
2021/06/15 07:31:35;;;;;;;4.57;1.73;;;;;;;;;;5143743;27;20365;-66
2021/06/15 07:34:01;;;;;;;7.45;1.88;;;;;;;;;;5144150;27;20027;-66
2021/06/15 07:36:27;;;;;;;4.35;1.50;;;;;;;;;;5142121;27;20023;-65
2021/06/15 07:38:54;;;;;;;4.05;1.70;;;;;;;;;;5141006;27;20088;-66
2021/06/15 07:41:20;;;;;;;4.90;1.67;;;;;;;;;;5149259;27;20642;-65
2021/06/15 07:43:46;;;;;;;3.45;1.45;;;;;;;;;;5140484;27;20099;-66
2021/06/15 07:46:15;;;;;;;4.50;1.77;;;;;;;;;;5123567;27;20030;-65
2021/06/15 07:48:41;;;;;;;6.22;1.67;;;;;;;;;;5144144;27;20023;-65
2021/06/15 07:51:07;;;;;;;5.07;1.60;;;;;;;;;;5144583;27;20029;-65
2021/06/15 07:53:33;;;;;;;6.88;2.17;;;;;;;;;;5142630;27;20027;-66
2021/06/15 07:55:59;;;;;;;5.25;1.75;;;;;;;;;;5147869;27;20385;-65
2021/06/15 07:58:25;;;;;;;4.15;1.67;;;;;;;;;;5153701;27;20377;-65
2021/06/15 08:00:51;;;;;;;10.70;1.90;;;;;;;;;;5144367;27;20019;-62
2021/06/15 08:03:17;;;;;;;3.42;1.60;;;;;;;;;;5137640;27;20027;-65
2021/06/15 08:05:43;;;;;;;5.22;1.63;;;;;;;;;;5133100;28;20104;-64
2021/06/15 08:08:09;;;;;;;4.28;1.40;;;;;;;;;;5133054;28;20051;-65
2021/06/15 08:10:35;;;;;;;3.88;1.67;;;;;;;;;;5135459;27;20574;-64
2021/06/15 08:13:02;;;;;;;7.53;1.85;;;;;;;;;;5140181;27;20469;-65
2021/06/15 08:15:28;;;;;;;5.00;1.67;;;;;;;;;;5149618;27;20625;-65
2021/06/15 08:17:54;;;;;;;4.43;1.75;;;;;;;;;;5144218;27;20023;-66
2021/06/15 08:20:20;;;;;;;5.65;1.50;;;;;;;;;;5140559;27;20031;-65
2021/06/15 08:22:46;;;;;;;4.93;1.70;;;;;;;;;;5128877;27;20023;-65
2021/06/15 08:25:12;;;;;;;4.63;1.60;;;;;;;;;;5136666;27;20060;-66
2021/06/15 08:27:38;;;;;;;4.80;1.38;;;;;;;;;;5142042;27;20034;-65
2021/06/15 08:30:05;;;;;;;5.05;1.67;;;;;;;;;;5136885;27;20431;-65
2021/06/15 08:32:31;;;;;;;3.35;1.20;;;;;;;;;;5140080;27;20027;-65
2021/06/15 08:34:57;;;;;;;3.88;1.42;;;;;;;;;;5132332;27;20120;-64
2021/06/15 08:37:23;;;;;;;3.92;1.35;;;;;;;;;;5117455;27;20019;-66
2021/06/15 08:39:49;;;;;;;3.65;1.60;;;;;;;;;;5136556;27;20027;-66
2021/06/15 08:42:16;;;;;;;3.75;1.05;;;;;;;;;;5136447;27;20120;-66
2021/06/15 08:44:43;;;;;;;4.35;1.50;;;;;;;;;;5136678;27;20060;-65
2021/06/15 08:47:09;;;;;;;6.07;1.30;;;;;;;;;;5136525;27;20030;-65
2021/06/15 08:49:35;;;;;;;3.03;1.30;;;;;;;;;;5136450;27;20019;-65
2021/06/15 08:52:02;;;;;;;3.20;1.30;;;;;;;;;;5137123;27;20022;-65
2021/06/15 08:54:28;;;;;;;3.30;1.48;;;;;;;;;;5156842;27;20042;-64
2021/06/15 08:56:54;;;;;;;6.28;1.65;;;;;;;;;;5156971;27;20461;-64
2021/06/15 08:59:29;;;;;;;3.58;1.17;;;;;;;;;;5156757;27;20093;-64
2021/06/15 09:01:59;;;;;;;2.80;1.30;;;;;;;;;;5157065;27;20067;-64
2021/06/15 09:04:26;;;;;;;4.32;1.50;;;;;;;;;;5147581;27;20101;-65
2021/06/15 09:06:56;;;;;;;2.33;1.13;;;;;;;;;;5141217;27;20020;-65
2021/06/15 09:09:23;;;;;;;2.70;1.20;;;;;;;;;;5150269;27;20018;-64
2021/06/15 09:11:52;;;;;;;4.05;1.08;;;;;;;;;;5156026;27;20018;-64
2021/06/15 09:14:19;;;;;;;4.05;1.30;;;;;;;;;;5156216;27;20034;-65
2021/06/15 09:16:46;;;;;;;6.65;1.35;;;;;;;;;;5148480;27;20527;-65
2021/06/15 09:19:21;;;;;;;9.88;1.60;;;;;;;;;;5138284;27;20039;-64
2021/06/15 09:21:48;;;;;;;6.90;1.40;;;;;;;;;;5134314;27;20027;-64
2021/06/15 09:24:23;;;;;;;6.47;1.13;;;;;;;;;;5133728;27;20116;-64
2021/06/15 09:26:55;;;;;;;6.20;1.55;;;;;;;;;;5134155;27;20028;-64
2021/06/15 09:29:41;;;;;;;11.88;1.17;;;;;;;;;;5134548;27;20019;-64
2021/06/15 09:32:09;;;;;;;2.72;1.10;;;;;;;;;;5134578;27;20023;-64
2021/06/15 09:34:35;;;;;;;4.88;1.23;;;;;;;;;;5134917;27;20031;-64
2021/06/15 09:37:05;;;;;;;2.78;1.15;;;;;;;;;;5134938;27;20034;-65
2021/06/15 09:39:32;;;;;;;3.88;1.27;;;;;;;;;;5117056;27;20075;-64
2021/06/15 09:41:58;;;;;;;8.48;1.42;;;;;;;;;;5135320;27;20043;-64
2021/06/15 09:44:26;;;;;;;2.42;1.00;;;;;;;;;;5135409;27;20034;-64
2021/06/15 09:46:54;;;;;;;3.95;1.48;;;;;;;;;;5134248;27;20019;-66
2021/06/15 09:49:46;;;;;;;6.80;1.48;;;;;;;;;;5146981;27;20025;-66
2021/06/15 09:52:18;;;;;;;5.25;1.45;;;;;;;;;;5151104;27;20070;-66
2021/06/15 09:54:44;;;;;;;2.60;1.10;;;;;;;;;;5155681;27;20034;-65
2021/06/15 09:57:12;;;;;;;3.90;1.23;;;;;;;;;;5155512;27;20022;-65
2021/06/15 09:59:56;;;;;;;2.17;1.00;;;;;;;;;;5155677;27;20026;-65
2021/06/15 10:02:23;;;;;;;5.60;1.70;;;;;;;;;;5155840;27;20027;-65
2021/06/15 10:04:50;;;;;;;4.93;1.08;;;;;;;;;;5155631;27;20030;-65
2021/06/15 10:07:25;;;;;;;4.38;1.40;;;;;;;;;;5155318;27;20068;-65
2021/06/15 10:09:51;;;;;;;3.97;1.60;;;;;;;;;;5155420;27;20015;-66
2021/06/15 10:12:17;;;;;;;5.40;1.35;;;;;;;;;;5137034;27;20481;-65
2021/06/15 10:14:44;;;;;;;3.75;1.30;;;;;;;;;;5137010;27;20125;-66
2021/06/15 10:17:11;;;;;;;3.25;1.23;;;;;;;;;;5147401;27;20015;-65
2021/06/15 10:19:39;;;;;;;3.88;1.20;;;;;;;;;;5136346;27;20015;-63
2021/06/15 10:22:06;;;;;;;6.32;1.20;;;;;;;;;;5143689;27;20022;-63
2021/06/15 10:24:32;;;;;;;5.30;1.60;;;;;;;;;;5143437;27;20068;-64
2021/06/15 10:26:58;;;;;;;6.55;1.60;;;;;;;;;;5146499;27;20109;-64
2021/06/15 10:29:27;;;;;;;4.78;1.90;;;;;;;;;;5154914;27;20043;-65
2021/06/15 10:31:53;;;;;;;4.35;1.77;;;;;;;;;;5135261;27;20373;-62
2021/06/15 10:34:38;;;;;;;3.88;1.50;;;;;;;;;;5143640;27;20478;-62
2021/06/15 10:37:04;;;;;;;5.55;1.38;;;;;;;;;;5115281;27;20122;-63
2021/06/15 10:39:40;;;;;;;3.67;1.48;;;;;;;;;;5133628;27;20027;-63
2021/06/15 10:42:11;;;;;;;7.25;1.52;;;;;;;;;;5133484;27;20506;-62
2021/06/15 10:44:37;;;;;;;12.52;2.30;;;;;;;;;;5136551;27;20417;-65
2021/06/15 10:47:11;;;;;;;14.73;2.45;;;;;;;;;;5115411;27;20386;-64
2021/06/15 10:49:56;;;;;;;12.57;2.25;;;;;;;;;;5133657;27;20027;-64
2021/06/15 10:52:23;;;;;;;5.65;2.03;;;;;;;;;;5134122;27;20068;-64
2021/06/15 10:54:49;;;;;;;7.25;1.80;;;;;;;;;;5115688;27;20035;-65
2021/06/15 10:57:17;;;;;;;10.60;2.17;;;;;;;;;;5133877;27;20098;-65
2021/06/15 11:00:02;;;;;;;14.18;1.90;;;;;;;;;;5133784;27;20381;-64
2021/06/15 11:02:31;;;;;;;8.32;1.85;;;;;;;;;;5134129;27;20025;-65
2021/06/15 11:04:57;;;;;;;6.68;1.77;;;;;;;;;;5133988;27;20022;-65
2021/06/15 11:07:44;;;;;;;7.78;1.88;;;;;;;;;;5133833;27;20023;-64
2021/06/15 11:10:11;;;;;;;5.45;1.67;;;;;;;;;;5133743;27;20007;-64
2021/06/15 11:12:47;;;;;;;4.72;1.63;;;;;;;;;;5134223;27;20537;-64
2021/06/15 11:15:22;;;;;;;10.68;1.60;;;;;;;;;;5133645;27;20037;-64
2021/06/15 11:17:50;;;;;;;4.78;1.58;;;;;;;;;;5133556;27;20520;-64
2021/06/15 11:20:25;;;;;;;6.38;1.45;;;;;;;;;;5133651;27;20023;-64
2021/06/15 11:23:10;;;;;;;5.32;1.92;;;;;;;;;;5115145;27;20453;-63
2021/06/15 11:25:45;;;;;;;3.63;1.50;;;;;;;;;;5133356;27;20034;-64
2021/06/15 11:28:30;;;;;;;3.92;1.55;;;;;;;;;;5133537;27;20054;-64
2021/06/15 11:31:22;;;;;;;5.38;1.45;;;;;;;;;;5133179;27;20043;-64
2021/06/15 11:34:07;;;;;;;2.78;1.23;;;;;;;;;;5128694;27;20126;-64
2021/06/15 11:36:40;;;;;;;5.53;1.50;;;;;;;;;;5133243;27;20057;-65
2021/06/15 11:39:26;;;;;;;4.13;1.35;;;;;;;;;;5133243;27;20023;-64
2021/06/15 11:42:17;;;;;;;4.63;1.20;;;;;;;;;;5133265;27;20043;-64
2021/06/15 11:44:46;;;;;;;3.05;1.50;;;;;;;;;;5133212;27;20015;-64
2021/06/15 11:47:31;;;;;;;3.28;1.30;;;;;;;;;;5132922;27;20102;-64
2021/06/15 11:50:03;;;;;;;6.97;1.52;;;;;;;;;;5132899;27;20027;-64
2021/06/15 11:52:32;;;;;;;3.75;1.20;;;;;;;;;;5132858;27;20109;-64
2021/06/15 11:54:58;;;;;;;4.72;1.40;;;;;;;;;;5132788;27;20031;-64
2021/06/15 11:57:25;;;;;;;4.05;1.33;;;;;;;;;;5132874;27;20216;-64
2021/06/15 11:59:51;;;;;;;3.25;1.23;;;;;;;;;;5132940;27;20098;-64
2021/06/15 12:02:23;;;;;;;2.67;1.00;;;;;;;;;;5114435;28;20382;-64
2021/06/15 12:05:03;;;;;;;4.30;1.50;;;;;;;;;;5132947;27;20012;-64
2021/06/15 12:07:30;;;;;;;5.03;1.15;;;;;;;;;;5132823;28;20087;-65
2021/06/15 12:10:06;;;;;;;3.90;1.33;;;;;;;;;;5132426;27;20486;-64
2021/06/15 12:12:52;;;;;;;3.80;1.10;;;;;;;;;;5132688;28;20070;-64
2021/06/15 12:15:28;;;;;;;3.03;1.20;;;;;;;;;;5132732;28;20025;-65
2021/06/15 12:17:55;;;;;;;4.40;1.30;;;;;;;;;;5132690;27;20055;-64
2021/06/15 12:20:25;;;;;;;3.38;1.20;;;;;;;;;;5132709;28;20019;-63
2021/06/15 12:22:51;;;;;;;3.05;1.25;;;;;;;;;;5143101;27;20026;-64
2021/06/15 12:25:18;;;;;;;2.88;1.10;;;;;;;;;;5153174;27;20022;-63
2021/06/15 12:27:45;;;;;;;4.03;1.83;;;;;;;;;;5153169;27;20027;-64
2021/06/15 12:30:12;;;;;;;4.13;1.40;;;;;;;;;;5142322;27;20015;-63
2021/06/15 12:32:45;;;;;;;4.72;1.42;;;;;;;;;;5137056;27;20121;-65
2021/06/15 12:35:20;;;;;;;6.50;1.42;;;;;;;;;;5141650;27;20042;-63
2021/06/15 12:37:46;;;;;;;7.90;1.60;;;;;;;;;;5153094;27;20037;-65
2021/06/15 12:40:13;;;;;;;4.30;1.30;;;;;;;;;;5134907;27;20026;-66
2021/06/15 12:42:39;;;;;;;4.03;1.15;;;;;;;;;;5134697;27;20050;-65
2021/06/15 12:45:07;;;;;;;3.58;1.50;;;;;;;;;;5153555;27;20123;-65
2021/06/15 12:47:43;;;;;;;5.22;1.38;;;;;;;;;;5114486;28;20027;-65
2021/06/15 12:50:19;;;;;;;4.75;1.30;;;;;;;;;;5132847;28;20072;-65
2021/06/15 12:52:45;;;;;;;4.80;1.45;;;;;;;;;;5132690;28;20110;-63
2021/06/15 12:55:12;;;;;;;6.10;1.33;;;;;;;;;;5132512;28;20031;-64
2021/06/15 12:57:39;;;;;;;3.33;1.38;;;;;;;;;;5113850;28;20437;-64
2021/06/15 13:00:09;;;;;;;4.70;1.30;;;;;;;;;;5132258;28;20396;-65
2021/06/15 13:02:37;;;;;;;3.78;1.20;;;;;;;;;;5131978;28;20022;-65
2021/06/15 13:05:05;;;;;;;6.32;1.35;;;;;;;;;;5132069;28;20509;-65
2021/06/15 13:07:32;;;;;;;7.07;1.60;;;;;;;;;;5131914;28;20030;-66
2021/06/15 13:09:58;;;;;;;4.68;1.30;;;;;;;;;;5131951;28;20019;-65
2021/06/15 13:12:29;;;;;;;4.07;1.40;;;;;;;;;;5132198;28;20023;-64
2021/06/15 13:14:56;;;;;;;4.05;1.48;;;;;;;;;;5132474;28;20035;-64
2021/06/15 13:17:23;;;;;;;3.63;1.30;;;;;;;;;;5131763;27;20079;-65
2021/06/15 13:19:51;;;;;;;2.88;1.30;;;;;;;;;;5131822;28;20530;-65
2021/06/15 13:22:19;;;;;;;4.05;1.50;;;;;;;;;;5133484;27;20020;-65
2021/06/15 13:24:45;;;;;;;4.10;1.20;;;;;;;;;;5135676;27;20068;-64
2021/06/15 13:27:20;;;;;;;5.10;1.45;;;;;;;;;;5136012;27;20060;-66
2021/06/15 13:29:47;;;;;;;6.28;1.35;;;;;;;;;;5135560;27;20537;-65
2021/06/15 13:32:22;;;;;;;3.25;1.30;;;;;;;;;;5135630;27;20019;-63
2021/06/15 13:35:04;;;;;;;4.13;1.40;;;;;;;;;;5117471;27;20030;-65
2021/06/15 13:37:30;;;;;;;;;;;;;;;;;;5135883;27;20079;-63
2021/06/15 13:39:56;;;;;;;3.50;1.60;;;;;;;;;;5135703;27;20281;-64
2021/06/15 13:42:25;;;;;;;4.32;1.60;;;;;;;;;;5135328;27;20163;-65
2021/06/15 13:45:01;;;;;;;3.60;1.40;;;;;;;;;;5135620;27;20034;-64
2021/06/15 13:47:27;;;;;;;4.82;1.73;;;;;;;;;;5139455;27;20050;-64
2021/06/15 13:49:53;;;;;;;2.65;1.20;;;;;;;;;;5138284;27;20049;-64
2021/06/15 13:52:19;;;;;;;5.88;1.55;;;;;;;;;;5116759;27;20115;-64
2021/06/15 13:54:45;;;;;;;3.03;1.20;;;;;;;;;;5116497;27;20501;-64
2021/06/15 13:57:11;;;;;;;2.22;1.05;;;;;;;;;;5135114;27;20027;-64
2021/06/15 13:59:37;;;;;;;4.50;1.20;;;;;;;;;;5135257;27;20094;-64
2021/06/15 14:02:03;;;;;;;3.92;1.55;;;;;;;;;;5134398;27;20477;-65
2021/06/15 14:04:29;;;;;;;3.17;1.58;;;;;;;;;;5134446;27;20031;-64
2021/06/15 14:06:55;;;;;;;4.65;1.55;;;;;;;;;;5134401;27;20046;-64
2021/06/15 14:09:22;;;;;;;3.03;1.38;;;;;;;;;;5134584;27;20052;-65
2021/06/15 14:11:48;;;;;;;5.28;1.50;;;;;;;;;;5140256;27;20019;-64
2021/06/15 14:14:14;;;;;;;2.80;1.40;;;;;;;;;;5155096;27;20103;-64
2021/06/15 14:16:40;;;;;;;4.95;1.65;;;;;;;;;;5151647;27;20481;-64
2021/06/15 14:19:06;;;;;;;3.03;1.30;;;;;;;;;;5134301;27;20439;-65
2021/06/15 14:21:37;;;;;;;4.53;1.52;;;;;;;;;;5115668;27;20051;-64
2021/06/15 14:24:07;;;;;;;3.78;1.10;;;;;;;;;;5134582;27;20014;-64
2021/06/15 14:26:33;;;;;;;7.03;1.50;;;;;;;;;;5134155;27;20023;-65
2021/06/15 14:28:59;;;;;;;3.70;1.63;;;;;;;;;;5134058;27;20041;-64
2021/06/15 14:31:25;;;;;;;3.47;1.40;;;;;;;;;;5115883;27;20077;-65
2021/06/15 14:33:51;;;;;;;3.63;1.40;;;;;;;;;;5133492;27;20035;-65
2021/06/15 14:36:17;;;;;;;2.95;1.25;;;;;;;;;;5134128;27;20068;-65
2021/06/15 14:38:43;;;;;;;6.38;1.20;;;;;;;;;;5134397;27;20030;-64
2021/06/15 14:41:09;;;;;;;4.90;1.40;;;;;;;;;;5134407;27;20099;-65
2021/06/15 14:43:35;;;;;;;2.70;1.20;;;;;;;;;;5134214;27;20054;-65
2021/06/15 14:46:01;;;;;;;3.05;1.25;;;;;;;;;;5134137;27;20042;-66
2021/06/15 14:48:27;;;;;;;3.67;1.50;;;;;;;;;;5115760;27;20026;-65
2021/06/15 14:50:53;;;;;;;2.88;1.20;;;;;;;;;;5134269;27;20428;-65
2021/06/15 14:53:19;;;;;;;4.22;1.40;;;;;;;;;;5133961;27;20027;-65
2021/06/15 14:55:45;;;;;;;4.13;1.40;;;;;;;;;;5133943;27;20020;-65